createdAt,value
2018-04-18T00:01:17.079Z,14.70
2018-04-18T00:03:44.529Z,14.70
2018-04-18T00:06:11.980Z,14.60
2018-04-18T00:08:39.454Z,14.60
2018-04-18T00:11:06.905Z,14.50
2018-04-18T00:13:34.369Z,14.50
2018-04-18T00:16:01.819Z,14.50
2018-04-18T00:18:30.074Z,14.40
2018-04-18T00:20:57.539Z,14.40
2018-04-18T00:23:25.104Z,14.30
2018-04-18T00:25:52.573Z,14.30
2018-04-18T00:28:20.061Z,14.20
2018-04-18T00:30:47.515Z,14.20
2018-04-18T00:33:14.998Z,14.20
2018-04-18T00:35:42.474Z,14.10
2018-04-18T00:38:09.938Z,14.10
2018-04-18T00:40:37.384Z,14.00
2018-04-18T00:43:04.859Z,13.90
2018-04-18T00:45:32.320Z,13.90
2018-04-18T00:47:59.776Z,13.90
2018-04-18T00:50:27.246Z,13.80
2018-04-18T00:52:54.707Z,13.70
2018-04-18T00:55:22.222Z,13.70
2018-04-18T00:57:49.784Z,13.60
2018-04-18T01:00:17.246Z,13.60
2018-04-18T01:02:44.714Z,13.60
2018-04-18T01:05:12.161Z,13.50
2018-04-18T01:07:39.634Z,13.50
2018-04-18T01:10:07.106Z,13.40
2018-04-18T01:12:34.618Z,13.40
2018-04-18T01:15:02.797Z,13.30
2018-04-18T01:17:30.257Z,13.30
2018-04-18T01:19:57.712Z,13.30
2018-04-18T01:22:25.178Z,13.30
2018-04-18T01:24:52.647Z,13.30
2018-04-18T01:27:20.099Z,13.20
2018-04-18T01:29:47.551Z,13.20
2018-04-18T01:32:15.780Z,13.20
2018-04-18T01:34:43.251Z,13.10
2018-04-18T01:37:10.718Z,13.10
2018-04-18T01:39:38.196Z,13.10
2018-04-18T01:42:05.667Z,13.10
2018-04-18T01:44:33.124Z,13.00
2018-04-18T01:47:00.607Z,13.00
2018-04-18T01:49:31.924Z,13.10
2018-04-18T01:51:59.379Z,13.00
2018-04-18T01:54:27.611Z,13.00
2018-04-18T01:56:55.087Z,12.90
2018-04-18T01:59:22.945Z,13.00
2018-04-18T02:01:50.415Z,12.90
2018-04-18T02:04:17.930Z,12.80
2018-04-18T02:06:45.495Z,12.80
2018-04-18T02:09:13.067Z,12.80
2018-04-18T02:11:40.526Z,12.80
2018-04-18T02:14:07.992Z,12.70
2018-04-18T02:16:35.474Z,12.70
2018-04-18T02:19:03.049Z,12.60
2018-04-18T02:21:30.531Z,12.60
2018-04-18T02:23:58.073Z,12.60
2018-04-18T02:26:25.541Z,12.60
2018-04-18T02:28:53.000Z,12.50
2018-04-18T02:31:20.460Z,12.50
2018-04-18T02:33:47.936Z,12.40
2018-04-18T02:36:15.431Z,12.40
2018-04-18T02:38:42.908Z,12.30
2018-04-18T02:41:10.379Z,12.30
2018-04-18T02:43:37.854Z,12.20
2018-04-18T02:46:05.405Z,12.20
2018-04-18T02:48:32.867Z,12.20
2018-04-18T02:51:00.344Z,12.10
2018-04-18T02:53:27.840Z,12.10
2018-04-18T02:55:55.398Z,12.10
2018-04-18T02:58:23.530Z,12.00
2018-04-18T03:00:51.049Z,12.00
2018-04-18T03:03:18.520Z,12.00
2018-04-18T03:05:46.028Z,11.90
2018-04-18T03:08:14.263Z,11.80
2018-04-18T03:10:41.751Z,11.80
2018-04-18T03:13:09.261Z,11.80
2018-04-18T03:15:36.726Z,11.80
2018-04-18T03:18:04.243Z,11.70
2018-04-18T03:20:31.719Z,11.70
2018-04-18T03:22:59.299Z,11.60
2018-04-18T03:25:26.867Z,11.70
2018-04-18T03:27:54.316Z,11.60
2018-04-18T03:30:21.776Z,11.60
2018-04-18T03:32:49.266Z,11.60
2018-04-18T03:35:16.753Z,11.60
2018-04-18T03:37:44.305Z,11.50
2018-04-18T03:40:11.789Z,11.40
2018-04-18T03:42:39.256Z,11.40
2018-04-18T03:45:06.819Z,11.30
2018-04-18T03:47:34.280Z,11.30
2018-04-18T03:50:01.870Z,11.30
2018-04-18T03:52:29.351Z,11.30
2018-04-18T03:54:56.940Z,11.20
2018-04-18T03:57:25.207Z,11.20
2018-04-18T03:59:52.688Z,11.20
2018-04-18T04:02:20.242Z,11.20
2018-04-18T04:04:47.719Z,11.20
2018-04-18T04:07:15.186Z,11.10
2018-04-18T04:09:42.652Z,11.10
2018-04-18T04:12:10.121Z,11.10
2018-04-18T04:14:37.675Z,11.00
2018-04-18T04:17:17.027Z,11.00
2018-04-18T04:19:56.378Z,11.00
2018-04-18T04:22:35.824Z,11.00
2018-04-18T04:25:03.300Z,10.90
2018-04-18T04:27:30.872Z,10.90
2018-04-18T04:29:59.260Z,10.80
2018-04-18T04:32:26.750Z,10.80
2018-04-18T04:34:54.205Z,10.80
2018-04-18T04:37:21.679Z,10.80
2018-04-18T04:39:49.160Z,10.80
2018-04-18T04:42:16.636Z,10.80
2018-04-18T04:44:44.107Z,10.80
2018-04-18T04:47:11.575Z,10.80
2018-04-18T04:49:39.811Z,10.80
2018-04-18T04:52:07.319Z,10.80
2018-04-18T04:54:36.311Z,10.80
2018-04-18T04:57:03.779Z,10.80
2018-04-18T04:59:31.256Z,10.90
2018-04-18T05:01:58.732Z,10.90
2018-04-18T05:04:26.211Z,10.90
2018-04-18T05:06:53.668Z,10.90
2018-04-18T05:09:21.907Z,10.90
2018-04-18T05:11:49.516Z,10.90
2018-04-18T05:14:17.040Z,11.00
2018-04-18T05:16:44.448Z,11.00
2018-04-18T05:19:11.915Z,11.00
2018-04-18T05:21:39.388Z,11.10
2018-04-18T05:24:06.940Z,11.10
2018-04-18T05:26:34.423Z,11.10
2018-04-18T05:29:01.917Z,11.20
2018-04-18T05:31:29.575Z,11.20
2018-04-18T05:33:57.043Z,11.20
2018-04-18T05:36:24.492Z,11.30
2018-04-18T05:38:51.987Z,11.40
2018-04-18T05:41:19.436Z,11.40
2018-04-18T05:43:46.968Z,11.50
2018-04-18T05:46:15.188Z,11.60
2018-04-18T05:48:42.689Z,11.60
2018-04-18T05:51:10.133Z,11.70
2018-04-18T05:53:37.623Z,11.70
2018-04-18T05:56:05.119Z,11.80
2018-04-18T05:58:32.571Z,11.90
2018-04-18T06:01:00.028Z,11.90
2018-04-18T06:03:27.510Z,12.00
2018-04-18T06:05:55.076Z,12.10
2018-04-18T06:08:22.562Z,12.20
2018-04-18T06:10:50.023Z,12.20
2018-04-18T06:13:17.476Z,12.30
2018-04-18T06:15:45.052Z,12.40
2018-04-18T06:18:12.542Z,12.60
2018-04-18T06:20:39.987Z,12.80
2018-04-18T06:23:07.464Z,12.90
2018-04-18T06:25:34.931Z,13.00
2018-04-18T06:28:02.411Z,13.10
2018-04-18T06:30:29.878Z,13.20
2018-04-18T06:32:57.365Z,13.20
2018-04-18T06:35:24.830Z,13.30
2018-04-18T06:37:52.276Z,13.40
2018-04-18T06:40:19.743Z,13.40
2018-04-18T06:42:47.234Z,13.50
2018-04-18T06:45:14.809Z,13.50
2018-04-18T06:47:43.032Z,13.60
2018-04-18T06:50:11.266Z,13.70
2018-04-18T06:52:38.749Z,13.70
2018-04-18T06:55:06.232Z,13.70
2018-04-18T06:57:33.686Z,13.80
2018-04-18T07:00:01.144Z,13.90
2018-04-18T07:02:28.727Z,14.00
2018-04-18T07:04:56.206Z,14.00
2018-04-18T07:07:23.774Z,14.10
2018-04-18T07:09:51.235Z,14.10
2018-04-18T07:12:18.761Z,14.30
2018-04-18T07:14:47.098Z,14.50
2018-04-18T07:17:14.555Z,14.50
2018-04-18T07:19:42.024Z,14.60
2018-04-18T07:22:09.507Z,14.70
2018-04-18T07:24:37.064Z,14.70
2018-04-18T07:27:04.558Z,14.80
2018-04-18T07:29:32.007Z,14.90
2018-04-18T07:31:59.471Z,15.00
2018-04-18T07:34:26.935Z,15.20
2018-04-18T07:36:54.395Z,15.30
2018-04-18T07:39:21.895Z,15.40
2018-04-18T07:41:49.452Z,15.50
2018-04-18T07:44:17.023Z,15.60
2018-04-18T07:46:44.495Z,15.70
2018-04-18T07:49:11.967Z,15.80
2018-04-18T07:51:39.547Z,16.00
2018-04-18T07:54:07.075Z,16.10
2018-04-18T07:56:34.595Z,16.20
2018-04-18T07:59:02.163Z,16.30
2018-04-18T08:01:29.642Z,16.40
2018-04-18T08:03:57.092Z,16.50
2018-04-18T08:06:24.544Z,16.70
2018-04-18T08:08:52.005Z,16.80
2018-04-18T08:11:19.474Z,16.90
2018-04-18T08:13:46.938Z,17.00
2018-04-18T08:16:14.398Z,17.10
2018-04-18T08:18:41.923Z,17.20
2018-04-18T08:21:09.382Z,17.30
2018-04-18T08:23:36.840Z,17.40
2018-04-18T08:26:04.300Z,17.60
2018-04-18T08:28:31.748Z,17.80
2018-04-18T08:30:59.249Z,17.90
2018-04-18T08:33:26.731Z,18.00
2018-04-18T08:35:54.194Z,18.10
2018-04-18T08:38:21.774Z,18.30
2018-04-18T08:40:49.259Z,18.40
2018-04-18T08:43:16.701Z,18.50
2018-04-18T08:45:44.164Z,18.60
2018-04-18T08:48:11.643Z,18.70
2018-04-18T08:50:39.212Z,18.80
2018-04-18T08:53:06.676Z,18.90
2018-04-18T08:55:34.150Z,19.00
2018-04-18T08:58:01.611Z,19.10
2018-04-18T09:00:29.077Z,19.20
2018-04-18T09:02:56.524Z,19.30
2018-04-18T09:05:24.003Z,19.40
2018-04-18T09:07:51.461Z,19.50
2018-04-18T09:10:18.975Z,19.60
2018-04-18T09:12:46.435Z,19.70
2018-04-18T09:15:13.908Z,19.80
2018-04-18T09:17:41.362Z,19.90
2018-04-18T09:20:08.808Z,20.00
2018-04-18T09:22:36.294Z,20.00
2018-04-18T09:25:03.733Z,20.20
2018-04-18T09:27:31.250Z,20.30
2018-04-18T09:29:58.695Z,20.30
2018-04-18T09:32:26.210Z,20.40
2018-04-18T09:34:54.445Z,20.60
2018-04-18T09:37:21.892Z,20.60
2018-04-18T09:39:50.139Z,20.80
2018-04-18T09:42:17.600Z,20.80
2018-04-18T09:44:45.073Z,20.90
2018-04-18T09:47:12.557Z,21.00
2018-04-18T09:49:40.005Z,21.20
2018-04-18T09:52:07.480Z,21.30
2018-04-18T09:54:34.962Z,21.40
2018-04-18T09:57:02.435Z,21.40
2018-04-18T09:59:29.996Z,21.60
2018-04-18T10:05:08.287Z,21.90
2018-04-18T10:07:35.760Z,21.90
2018-04-18T10:10:03.200Z,22.00
2018-04-18T10:12:30.674Z,22.00
2018-04-18T10:14:58.125Z,22.10
2018-04-18T10:17:25.587Z,22.10
2018-04-18T10:19:53.044Z,22.20
2018-04-18T10:22:20.479Z,22.30
2018-04-18T10:24:48.712Z,22.60
2018-04-18T10:27:16.175Z,22.60
2018-04-18T10:29:43.860Z,22.80
2018-04-18T10:32:11.319Z,22.90
2018-04-18T10:34:38.765Z,23.00
2018-04-18T10:37:06.990Z,23.30
2018-04-18T10:39:34.444Z,23.30
2018-04-18T10:42:01.896Z,23.40
2018-04-18T10:44:29.407Z,23.40
2018-04-18T10:46:56.964Z,23.50
2018-04-18T10:49:24.408Z,23.50
2018-04-18T10:51:51.878Z,23.60
2018-04-18T10:54:19.342Z,23.80
2018-04-18T10:56:47.555Z,24.10
2018-04-18T10:59:15.003Z,24.10
2018-04-18T11:01:42.447Z,24.30
2018-04-18T11:04:10.678Z,24.40
2018-04-18T11:06:38.175Z,24.40
2018-04-18T11:09:05.643Z,24.50
2018-04-18T11:11:33.093Z,24.50
2018-04-18T11:14:00.548Z,24.70
2018-04-18T11:16:28.006Z,24.70
2018-04-18T11:18:55.502Z,25.00
2018-04-18T11:21:22.971Z,25.50
2018-04-18T11:23:50.426Z,26.10
2018-04-18T11:26:17.931Z,27.10
2018-04-18T11:28:45.390Z,27.90
2018-04-18T11:31:12.856Z,28.80
2018-04-18T11:33:40.329Z,28.80
2018-04-18T11:36:07.796Z,29.60
2018-04-18T11:38:35.274Z,30.10
2018-04-18T11:41:02.738Z,30.70
2018-04-18T11:43:30.199Z,31.00
2018-04-18T11:45:57.675Z,31.90
2018-04-18T11:48:25.138Z,33.00
2018-04-18T11:50:52.584Z,34.10
2018-04-18T11:53:20.047Z,34.40
2018-04-18T11:55:48.260Z,34.60
2018-04-18T11:58:15.259Z,34.60
2018-04-18T12:00:42.767Z,35.50
2018-04-18T12:03:09.790Z,35.90
2018-04-18T12:05:36.827Z,35.80
2018-04-18T12:08:03.823Z,36.30
2018-04-18T12:10:31.602Z,36.60
2018-04-18T12:12:59.430Z,37.30
2018-04-18T12:15:26.514Z,37.30
2018-04-18T12:17:53.514Z,37.60
2018-04-18T12:20:20.533Z,37.20
2018-04-18T12:22:47.559Z,37.70
2018-04-18T12:25:14.636Z,38.10
2018-04-18T12:27:41.628Z,38.20
2018-04-18T12:30:09.485Z,37.80
2018-04-18T12:32:37.040Z,37.80
2018-04-18T12:35:04.509Z,38.90
2018-04-18T12:37:31.966Z,38.30
2018-04-18T12:39:59.430Z,38.60
2018-04-18T12:42:26.891Z,39.10
2018-04-18T12:44:54.379Z,39.30
2018-04-18T12:47:21.855Z,39.00
2018-04-18T12:49:49.417Z,39.40
2018-04-18T12:52:16.872Z,39.70
2018-04-18T12:54:44.331Z,39.70
2018-04-18T12:57:11.777Z,39.50
2018-04-18T12:59:39.992Z,37.80
2018-04-18T13:02:07.476Z,37.80
2018-04-18T13:04:34.929Z,38.20
2018-04-18T13:07:02.396Z,38.50
2018-04-18T13:09:29.879Z,39.00
2018-04-18T13:11:57.346Z,39.20
2018-04-18T13:14:24.793Z,38.80
2018-04-18T13:16:52.246Z,38.60
2018-04-18T13:19:20.490Z,39.60
2018-04-18T13:21:47.955Z,39.50
2018-04-18T13:24:15.412Z,40.20
2018-04-18T13:26:42.865Z,40.90
2018-04-18T13:29:10.370Z,42.10
2018-04-18T13:31:37.829Z,42.30
2018-04-18T13:34:05.295Z,42.70
2018-04-18T13:36:32.801Z,41.80
2018-04-18T13:39:00.231Z,42.20
2018-04-18T13:41:27.694Z,42.50
2018-04-18T13:43:55.186Z,42.60
2018-04-18T13:46:22.650Z,42.70
2018-04-18T13:48:50.131Z,43.20
2018-04-18T13:51:17.601Z,43.10
2018-04-18T13:53:45.070Z,42.60
2018-04-18T13:56:12.545Z,42.70
2018-04-18T13:58:39.992Z,42.90
2018-04-18T14:01:07.436Z,43.60
2018-04-18T14:03:34.952Z,43.90
2018-04-18T14:06:02.389Z,43.90
2018-04-18T14:08:29.886Z,43.80
2018-04-18T14:10:57.432Z,43.70
2018-04-18T14:13:24.918Z,43.80
2018-04-18T14:15:52.481Z,44.50
2018-04-18T14:18:19.940Z,44.60
2018-04-18T14:20:47.525Z,44.50
2018-04-18T14:23:15.002Z,44.20
2018-04-18T14:25:42.488Z,44.30
2018-04-18T14:28:09.904Z,44.40
2018-04-18T14:30:37.415Z,45.00
2018-04-18T14:33:04.967Z,45.00
2018-04-18T14:35:32.459Z,44.70
2018-04-18T14:37:59.915Z,45.50
2018-04-18T14:40:27.391Z,46.30
2018-04-18T14:42:54.836Z,46.60
2018-04-18T14:45:22.300Z,46.40
2018-04-18T14:47:49.791Z,46.80
2018-04-18T14:50:17.259Z,47.30
2018-04-18T14:52:44.692Z,47.60
2018-04-18T14:55:12.144Z,48.10
2018-04-18T14:57:40.404Z,49.00
2018-04-18T15:00:07.864Z,48.90
2018-04-18T15:02:35.333Z,49.00
2018-04-18T15:05:02.784Z,49.30
2018-04-18T15:07:30.243Z,49.30
2018-04-18T15:09:57.724Z,49.20
2018-04-18T15:12:25.169Z,49.50
2018-04-18T15:14:52.667Z,49.60
2018-04-18T15:17:20.144Z,50.00
2018-04-18T15:19:47.620Z,50.20
2018-04-18T15:22:15.094Z,50.00
2018-04-18T15:24:42.560Z,49.40
2018-04-18T15:27:10.035Z,49.50
2018-04-18T15:29:37.518Z,49.40
2018-04-18T15:32:05.057Z,49.20
2018-04-18T15:34:32.500Z,49.00
2018-04-18T15:36:59.970Z,48.20
2018-04-18T15:39:27.415Z,47.90
2018-04-18T15:41:55.623Z,47.50
2018-04-18T15:44:23.072Z,47.50
2018-04-18T15:46:51.280Z,47.40
2018-04-18T15:49:18.795Z,47.40
2018-04-18T15:51:46.251Z,47.10
2018-04-18T15:54:13.697Z,47.20
2018-04-18T15:56:41.169Z,47.10
2018-04-18T15:59:08.670Z,47.00
2018-04-18T16:01:36.147Z,47.00
2018-04-18T16:04:03.597Z,46.40
2018-04-18T16:06:31.098Z,46.50
2018-04-18T16:08:58.544Z,46.40
2018-04-18T16:11:26.003Z,46.40
2018-04-18T16:13:53.460Z,46.40
2018-04-18T16:16:20.927Z,46.10
2018-04-18T16:18:48.388Z,46.00
2018-04-18T16:21:15.841Z,45.60
2018-04-18T16:23:44.068Z,45.10
2018-04-18T16:26:11.557Z,45.10
2018-04-18T16:28:39.011Z,45.00
2018-04-18T16:31:06.460Z,44.90
2018-04-18T16:33:33.944Z,45.00
2018-04-18T16:36:01.431Z,44.90
2018-04-18T16:38:28.888Z,45.00
2018-04-18T16:40:56.331Z,44.70
2018-04-18T16:43:23.827Z,44.80
2018-04-18T16:45:51.277Z,44.50
2018-04-18T16:48:18.747Z,44.40
2018-04-18T16:50:46.192Z,44.50
2018-04-18T16:53:13.699Z,44.20
2018-04-18T16:55:41.144Z,44.10
2018-04-18T16:58:08.659Z,44.00
2018-04-18T17:00:36.216Z,44.10
2018-04-18T17:03:03.698Z,44.00
2018-04-18T17:05:31.145Z,43.90
2018-04-18T17:07:58.622Z,43.60
2018-04-18T17:10:26.070Z,43.10
2018-04-18T17:12:53.541Z,42.90
2018-04-18T17:15:21.014Z,42.80
2018-04-18T17:17:48.520Z,42.30
2018-04-18T17:20:16.067Z,42.20
2018-04-18T17:22:43.548Z,42.00
2018-04-18T17:25:10.993Z,41.80
2018-04-18T17:27:38.494Z,41.60
2018-04-18T17:30:06.066Z,41.20
2018-04-18T17:32:33.539Z,40.70
2018-04-18T17:35:01.099Z,40.00
2018-04-18T17:37:28.656Z,39.20
2018-04-18T17:39:56.133Z,38.40
2018-04-18T17:42:23.710Z,37.50
2018-04-18T17:44:51.180Z,36.60
2018-04-18T17:47:18.680Z,35.90
2018-04-18T17:49:46.896Z,34.40
2018-04-18T17:52:14.396Z,34.30
2018-04-18T17:54:41.872Z,33.80
2018-04-18T17:57:09.353Z,33.20
2018-04-18T17:59:36.810Z,32.80
2018-04-18T18:02:04.348Z,32.30
2018-04-18T18:04:31.868Z,31.90
2018-04-18T18:06:59.325Z,31.50
2018-04-18T18:09:26.778Z,31.20
2018-04-18T18:11:54.251Z,30.80
2018-04-18T18:14:21.740Z,30.50
2018-04-18T18:16:49.189Z,30.20
2018-04-18T18:19:16.644Z,30.00
2018-04-18T18:21:44.091Z,29.70
2018-04-18T18:24:12.297Z,29.30
2018-04-18T18:26:39.760Z,29.20
2018-04-18T18:29:07.210Z,29.00
2018-04-18T18:31:35.604Z,28.50
2018-04-18T18:34:03.003Z,28.40
2018-04-18T18:36:30.445Z,28.20
2018-04-18T18:38:58.677Z,27.90
2018-04-18T18:41:26.123Z,27.90
2018-04-18T18:43:53.576Z,27.70
2018-04-18T18:46:21.057Z,27.50
2018-04-18T18:48:48.568Z,27.30
2018-04-18T18:51:16.030Z,27.10
2018-04-18T18:53:43.493Z,26.90
2018-04-18T18:56:10.956Z,26.80
2018-04-18T18:58:38.528Z,26.60
2018-04-18T19:01:05.999Z,26.50
2018-04-18T19:03:33.472Z,26.40
2018-04-18T19:06:00.950Z,26.30
2018-04-18T19:08:28.420Z,26.20
2018-04-18T19:10:55.870Z,26.10
2018-04-18T19:13:23.318Z,26.00
2018-04-18T19:15:50.770Z,25.90
2018-04-18T19:18:19.002Z,25.70
2018-04-18T19:20:46.484Z,25.60
2018-04-18T19:23:13.946Z,25.50
2018-04-18T19:25:41.416Z,25.50
2018-04-18T19:28:08.872Z,25.40
2018-04-18T19:30:36.348Z,25.30
2018-04-18T19:33:03.819Z,25.20
2018-04-18T19:35:31.287Z,25.10
2018-04-18T19:37:58.748Z,25.00
2018-04-18T19:40:26.321Z,24.90
2018-04-18T19:42:53.763Z,24.80
2018-04-18T19:45:21.211Z,24.70
2018-04-18T19:47:49.442Z,24.50
2018-04-18T19:50:16.907Z,24.50
2018-04-18T19:52:44.343Z,24.50
2018-04-18T19:55:12.582Z,24.30
2018-04-18T19:57:40.043Z,24.30
2018-04-18T20:00:07.506Z,24.30
2018-04-18T20:02:34.963Z,24.20
2018-04-18T20:05:02.420Z,24.10
2018-04-18T20:07:29.863Z,24.00
2018-04-18T20:09:58.095Z,23.80
2018-04-18T20:12:25.551Z,23.80
2018-04-18T20:14:52.989Z,23.80
2018-04-18T20:17:21.244Z,23.70
2018-04-18T20:19:48.685Z,23.60
2018-04-18T20:22:16.132Z,23.60
2018-04-18T20:24:44.361Z,23.50
2018-04-18T20:27:11.814Z,23.40
2018-04-18T20:29:39.264Z,23.50
2018-04-18T20:32:06.735Z,23.40
2018-04-18T20:34:34.191Z,23.30
2018-04-18T20:37:02.418Z,23.20
2018-04-18T20:39:29.860Z,23.20
2018-04-18T20:41:57.347Z,23.20
2018-04-18T20:44:24.805Z,23.10
2018-04-18T20:46:52.267Z,23.00
2018-04-18T20:49:19.835Z,23.00
2018-04-18T20:51:48.054Z,22.80
2018-04-18T20:54:15.515Z,22.80
2018-04-18T20:56:42.986Z,22.80
2018-04-18T20:59:10.430Z,22.80
2018-04-18T21:01:37.872Z,22.70
2018-04-18T21:04:05.324Z,22.60
2018-04-18T21:06:32.871Z,22.60
2018-04-18T21:09:00.358Z,22.50
2018-04-18T21:11:27.826Z,22.50
2018-04-18T21:13:55.264Z,22.40
2018-04-18T21:16:22.704Z,22.30
2018-04-18T21:18:50.936Z,22.20
2018-04-18T21:21:18.375Z,22.20
2018-04-18T21:23:45.897Z,22.10
2018-04-18T21:26:13.347Z,22.10
2018-04-18T21:28:40.791Z,22.10
2018-04-18T21:31:08.306Z,22.10
2018-04-18T21:33:35.779Z,22.00
2018-04-18T21:36:03.227Z,21.90
2018-04-18T21:38:30.757Z,21.90
2018-04-18T21:40:58.176Z,21.90
2018-04-18T21:43:25.646Z,21.90
2018-04-18T21:45:53.084Z,21.80
2018-04-18T21:48:20.591Z,21.70
2018-04-18T21:50:48.071Z,21.70
2018-04-18T21:53:15.528Z,21.70
2018-04-18T21:55:42.976Z,21.60
2018-04-18T21:58:10.553Z,21.50
2018-04-18T22:00:37.992Z,21.50
2018-04-18T22:03:05.435Z,21.50
2018-04-18T22:05:32.904Z,21.40
2018-04-18T22:08:00.359Z,21.30
2018-04-18T22:10:27.867Z,21.30
2018-04-18T22:12:56.093Z,21.20
2018-04-18T22:15:23.567Z,21.10
2018-04-18T22:17:51.008Z,21.10
2018-04-18T22:20:18.452Z,21.10
2018-04-18T22:22:46.680Z,21.00
2018-04-18T22:25:14.144Z,21.00
2018-04-18T22:27:41.584Z,20.90
2018-04-18T22:30:09.052Z,20.90
2018-04-18T22:32:37.262Z,20.70
2018-04-18T22:35:04.721Z,20.70
2018-04-18T22:37:32.164Z,20.70
2018-04-18T22:40:00.384Z,20.50
2018-04-18T22:42:27.859Z,20.50
2018-04-18T22:44:55.313Z,20.40
2018-04-18T22:47:22.767Z,20.40
2018-04-18T22:49:50.999Z,20.20
2018-04-18T22:52:18.458Z,20.20
2018-04-18T22:54:45.905Z,20.20
2018-04-18T22:57:13.353Z,20.10
2018-04-18T22:59:41.572Z,20.00
2018-04-18T23:02:09.031Z,19.90
2018-04-18T23:04:36.486Z,19.90
2018-04-18T23:07:04.715Z,19.80
2018-04-18T23:09:32.207Z,19.80
2018-04-18T23:11:59.653Z,19.80
2018-04-18T23:14:27.119Z,19.60
2018-04-18T23:16:54.580Z,19.60
2018-04-18T23:19:22.058Z,19.60
2018-04-18T23:21:49.498Z,19.50
2018-04-18T23:24:16.962Z,19.40
2018-04-18T23:26:45.190Z,19.40
2018-04-18T23:29:12.636Z,19.30
2018-04-18T23:31:40.080Z,19.30
2018-04-18T23:34:08.315Z,19.20
2018-04-18T23:36:35.751Z,19.20
2018-04-18T23:39:03.226Z,19.20
2018-04-18T23:41:30.719Z,19.10
2018-04-18T23:43:58.171Z,19.10
2018-04-18T23:46:25.728Z,19.00
2018-04-18T23:48:53.957Z,18.90
2018-04-18T23:51:21.516Z,18.90
2018-04-18T23:53:48.960Z,18.90
2018-04-18T23:56:16.406Z,18.80
2018-04-18T23:58:43.930Z,18.80
